Time;durP1;ratioP1;P1;durP2;ratioP2;P2;SDS_P1;SDS_P2;PMS_P1;PMS_P2;Temp;Humidity;BMP_temperature;BMP_pressure;BME280_temperature;BME280_humidity;BME280_pressure;Samples;Min_cycle;Max_cycle;Signal;HPM_P1;HPM_P2
2023/02/18 00:02:07;;;;;;;0.40;0.40;;;;;;;5.41;67.20;98710.06;5064006;28;20021;-66
2023/02/18 00:04:33;;;;;;;0.50;0.50;;;;;;;5.41;66.94;98704.03;5064794;28;20028;-66
2023/02/18 00:06:58;;;;;;;0.50;0.50;;;;;;;5.37;67.40;98717.84;5067717;28;20073;-67
2023/02/18 00:09:24;;;;;;;1.40;1.40;;;;;;;5.31;65.64;98729.06;5067697;28;20376;-66
2023/02/18 00:11:50;;;;;;;0.52;0.52;;;;;;;5.31;66.58;98729.06;5067525;28;20488;-65
2023/02/18 00:14:16;;;;;;;0.50;0.50;;;;;;;5.25;66.81;98734.28;5067648;28;20028;-66
2023/02/18 00:16:43;;;;;;;0.50;0.50;;;;;;;5.25;67.89;98739.44;5066242;28;20055;-66
2023/02/18 00:19:12;;;;;;;0.50;0.50;;;;;;;5.21;67.47;98718.88;5067461;28;20029;-65
2023/02/18 00:21:37;;;;;;;0.50;0.50;;;;;;;5.23;68.72;98746.31;5067160;28;20088;-65
2023/02/18 00:24:05;;;;;;;0.50;0.50;;;;;;;5.18;68.84;98778.09;5067598;28;20025;-67
2023/02/18 00:26:30;;;;;;;2.42;2.28;;;;;;;5.17;67.77;98775.56;5067367;28;20036;-66
2023/02/18 00:28:56;;;;;;;0.50;0.50;;;;;;;5.11;66.01;98784.22;5067418;28;20044;-66
2023/02/18 00:31:26;;;;;;;0.50;0.50;;;;;;;5.06;67.63;98783.41;5067168;28;20044;-65
2023/02/18 00:33:52;;;;;;;0.50;0.50;;;;;;;5.10;67.45;98803.06;5067357;28;20058;-66
2023/02/18 00:36:20;;;;;;;0.50;0.50;;;;;;;5.16;67.57;98799.59;5067248;28;20025;-64
2023/02/18 00:38:47;;;;;;;0.50;0.50;;;;;;;5.10;67.63;98807.38;5065675;28;20025;-66
2023/02/18 00:41:13;;;;;;;0.50;0.50;;;;;;;5.00;67.32;98804.88;5067193;28;20040;-63
2023/02/18 00:43:39;;;;;;;0.50;0.50;;;;;;;5.01;67.69;98821.19;5067158;28;20025;-66
2023/02/18 00:46:05;;;;;;;0.50;0.50;;;;;;;5.01;67.09;98823.75;5066931;28;20081;-66
2023/02/18 00:48:30;;;;;;;0.50;0.50;;;;;;;4.92;66.19;98842.72;5065666;28;20017;-65
2023/02/18 00:50:56;;;;;;;0.50;0.50;;;;;;;4.92;67.19;98833.28;5067159;28;20021;-66
2023/02/18 00:53:21;;;;;;;0.80;0.80;;;;;;;4.94;68.25;98828.97;5066915;28;20456;-66
2023/02/18 00:55:47;;;;;;;0.50;0.50;;;;;;;4.90;67.70;98862.47;5067077;28;20025;-66
2023/02/18 00:58:14;;;;;;;0.50;0.50;;;;;;;4.89;68.52;98776.72;5066786;28;20048;-64
2023/02/18 01:00:40;;;;;;;0.57;0.57;;;;;;;4.88;68.77;98867.63;5066604;28;20028;-67
2023/02/18 01:03:08;;;;;;;0.50;0.50;;;;;;;4.87;68.62;98870.19;5066933;28;20021;-66
2023/02/18 01:05:36;;;;;;;0.50;0.50;;;;;;;4.79;67.85;98878.81;5066822;28;20029;-66
2023/02/18 01:08:02;;;;;;;0.50;0.50;;;;;;;4.77;68.75;98878.00;5066928;28;20025;-67
2023/02/18 01:10:28;;;;;;;0.50;0.50;;;;;;;4.70;67.61;98904.63;5066823;28;20052;-66
2023/02/18 01:12:53;;;;;;;0.50;0.50;;;;;;;4.65;66.33;98883.28;5065281;28;20017;-67
2023/02/18 01:15:19;;;;;;;0.50;0.50;;;;;;;4.62;65.71;98893.56;5066701;28;20092;-66
2023/02/18 01:17:44;;;;;;;0.50;0.50;;;;;;;4.65;67.81;98914.13;5066326;28;20036;-66
2023/02/18 01:20:11;;;;;;;0.60;0.60;;;;;;;4.64;68.18;98923.53;5066255;28;20036;-66
2023/02/18 01:22:37;;;;;;;0.60;0.60;;;;;;;4.62;69.22;98922.69;5066356;28;20029;-69
2023/02/18 01:25:04;;;;;;;0.50;0.50;;;;;;;4.59;68.35;98936.44;5066471;28;20032;-67
2023/02/18 01:27:29;;;;;;;0.50;0.50;;;;;;;4.53;67.05;98930.47;5066378;28;20385;-66
2023/02/18 01:29:55;;;;;;;0.50;0.50;;;;;;;4.57;69.75;98929.56;5066106;28;20473;-66
2023/02/18 01:32:20;;;;;;;0.65;0.65;;;;;;;4.61;70.51;98962.13;5066023;28;20063;-66
2023/02/18 01:34:45;;;;;;;0.50;0.50;;;;;;;4.56;70.34;98961.28;5066289;28;20029;-67
2023/02/18 01:37:12;;;;;;;0.50;0.50;;;;;;;4.51;68.26;98965.59;5065968;28;20055;-67
2023/02/18 01:39:38;;;;;;;0.50;0.50;;;;;;;4.45;67.74;98969.94;5065942;28;20029;-66
2023/02/18 01:42:04;;;;;;;0.50;0.50;;;;;;;4.53;69.53;98987.88;5065978;28;20029;-67
2023/02/18 01:44:32;;;;;;;0.55;0.55;;;;;;;4.51;69.10;98992.16;5065928;28;20025;-67
2023/02/18 01:46:57;;;;;;;0.50;0.50;;;;;;;4.47;68.32;98999.03;5065887;28;20028;-66
2023/02/18 01:49:27;;;;;;;0.50;0.50;;;;;;;4.50;69.04;99003.31;5066287;28;20032;-66
2023/02/18 01:52:01;;;;;;;0.98;0.93;;;;;;;4.45;69.18;99023.06;5065930;28;20017;-67
2023/02/18 01:54:31;;;;;;;0.50;0.50;;;;;;;4.41;68.95;99011.94;5066043;28;20091;-67
2023/02/18 01:57:12;;;;;;;0.50;0.50;;;;;;;4.45;70.25;99031.63;5065560;28;20087;-66
2023/02/18 01:59:56;;;;;;;0.60;0.60;;;;;;;4.39;69.32;99034.22;5065927;28;20025;-66
2023/02/18 02:02:26;;;;;;;0.50;0.50;;;;;;;4.40;68.80;99053.06;5065594;28;20122;-67
2023/02/18 02:04:52;;;;;;;0.50;0.50;;;;;;;4.35;68.55;99055.66;5066332;28;20046;-66
2023/02/18 02:07:20;;;;;;;0.50;0.50;;;;;;;4.35;70.22;99060.78;5065854;28;20017;-67
2023/02/18 02:09:48;;;;;;;0.50;0.50;;;;;;;4.31;69.40;99056.53;5064259;28;20054;-67
2023/02/18 02:12:36;;;;;;;1.50;1.50;;;;;;;4.29;68.86;99065.94;5065496;28;20033;-66
2023/02/18 02:15:35;;;;;;;0.52;0.52;;;;;;;4.24;66.69;99080.53;5065543;28;20021;-67
2023/02/18 02:18:01;;;;;;;0.50;0.50;;;;;;;4.24;68.94;99083.09;5063937;28;20021;-67
2023/02/18 02:20:29;;;;;;;0.45;0.45;;;;;;;4.22;68.26;99081.41;5065169;28;20044;-66
2023/02/18 02:23:06;;;;;;;0.50;0.50;;;;;;;4.25;68.71;99102.81;5065348;28;20039;-66
2023/02/18 02:25:40;;;;;;;1.02;1.02;;;;;;;4.20;66.10;99085.69;5065377;28;20495;-65
2023/02/18 02:28:29;;;;;;;0.50;0.50;;;;;;;4.22;68.58;99095.94;5065133;28;20031;-65
2023/02/18 02:31:28;;;;;;;0.60;0.60;;;;;;;4.26;66.62;99096.81;5065078;28;20501;-66
2023/02/18 02:34:21;;;;;;;0.50;0.50;;;;;;;4.26;67.22;99101.94;5065231;28;20031;-67
2023/02/18 02:37:25;;;;;;;0.50;0.50;;;;;;;4.21;66.47;99104.53;5064978;28;20029;-65
2023/02/18 02:40:12;;;;;;;0.50;0.50;;;;;;;4.30;68.08;99101.06;5042846;28;20036;-68
2023/02/18 02:42:59;;;;;;;0.60;0.60;;;;;;;4.22;67.56;99111.38;5042631;28;20053;-69
2023/02/18 02:46:01;;;;;;;0.60;0.60;;;;;;;4.20;67.14;99105.41;5042883;28;20295;-67
2023/02/18 02:48:54;;;;;;;0.70;0.70;;;;;;;4.17;69.17;99108.81;5042761;28;20041;-67
2023/02/18 02:51:40;;;;;;;0.50;0.50;;;;;;;4.18;70.27;99120.81;5042589;28;20036;-68
2023/02/18 02:54:21;;;;;;;0.70;0.70;;;;;;;4.09;69.88;99126.81;5042655;28;20088;-67
2023/02/18 02:56:47;;;;;;;0.60;0.60;;;;;;;4.06;69.55;99131.09;5042431;28;20079;-67
2023/02/18 02:59:21;;;;;;;2.25;2.15;;;;;;;4.04;69.31;99135.41;5042616;28;20021;-70
2023/02/18 03:01:55;;;;;;;0.80;0.80;;;;;;;4.06;69.87;99149.06;5042750;28;20052;-67
2023/02/18 03:04:37;;;;;;;0.50;0.50;;;;;;;4.05;68.99;99142.25;5042759;28;20033;-67
2023/02/18 03:07:30;;;;;;;0.60;0.60;;;;;;;4.02;68.04;99139.69;5042898;28;20036;-66
2023/02/18 03:10:22;;;;;;;0.50;0.50;;;;;;;4.08;69.57;99144.81;5043447;28;20026;-67
2023/02/18 03:12:47;;;;;;;0.60;0.60;;;;;;;4.04;70.13;99148.25;5044242;28;20040;-67
2023/02/18 03:15:35;;;;;;;0.43;0.43;;;;;;;4.04;70.69;99148.25;5065359;28;20041;-66
2023/02/18 03:18:07;;;;;;;0.60;0.60;;;;;;;4.04;71.14;99156.78;5064662;28;20093;-67
2023/02/18 03:20:39;;;;;;;0.50;0.50;;;;;;;3.97;69.96;99148.25;5064630;28;20528;-66
2023/02/18 03:23:10;;;;;;;0.50;0.50;;;;;;;3.99;70.65;99162.78;5065007;28;20028;-67
2023/02/18 03:25:38;;;;;;;0.70;0.70;;;;;;;3.94;71.33;99167.94;5064967;28;20047;-67
2023/02/18 03:28:15;;;;;;;0.60;0.60;;;;;;;3.89;71.30;99167.94;5064502;28;20032;-67
2023/02/18 03:30:47;;;;;;;0.50;0.50;;;;;;;3.96;71.71;99167.06;5063532;28;20032;-65
2023/02/18 03:33:17;;;;;;;0.43;0.43;;;;;;;3.88;71.08;99166.25;5064618;28;20021;-67
2023/02/18 03:35:44;;;;;;;2.08;1.98;;;;;;;3.95;71.32;99177.34;5064742;28;20040;-65
2023/02/18 03:38:23;;;;;;;0.50;0.50;;;;;;;3.92;71.98;99182.50;5064497;28;20021;-66
2023/02/18 03:41:00;;;;;;;0.60;0.60;;;;;;;3.92;71.59;99169.66;5067325;28;20032;-67
2023/02/18 03:43:27;;;;;;;0.52;0.52;;;;;;;3.88;72.49;99165.38;5068316;28;20021;-67
2023/02/18 03:45:53;;;;;;;0.50;0.50;;;;;;;3.95;73.41;99175.66;5068148;28;20025;-66
2023/02/18 03:48:18;;;;;;;0.47;0.47;;;;;;;3.93;73.13;99189.34;5068345;28;20020;-67
2023/02/18 03:50:43;;;;;;;0.50;0.50;;;;;;;3.96;72.48;99179.06;5068217;28;20021;-66
2023/02/18 03:53:09;;;;;;;0.50;0.50;;;;;;;3.94;73.38;99189.34;5067918;28;20025;-65
2023/02/18 03:55:34;;;;;;;1.48;1.45;;;;;;;3.92;74.19;99183.34;5068318;28;20025;-67
2023/02/18 03:58:00;;;;;;;2.50;2.30;;;;;;;3.83;72.48;99191.06;5067867;28;20037;-66
2023/02/18 04:00:25;;;;;;;0.45;0.45;;;;;;;3.86;72.01;99191.06;5068127;28;20036;-66
2023/02/18 04:02:50;;;;;;;0.55;0.55;;;;;;;3.86;72.60;99187.63;5067819;28;20048;-67
2023/02/18 04:05:16;;;;;;;0.60;0.60;;;;;;;3.90;72.92;99190.19;5067930;28;20457;-68
2023/02/18 04:07:41;;;;;;;0.55;0.55;;;;;;;3.95;73.88;99196.19;5067820;28;20017;-67
2023/02/18 04:10:07;;;;;;;0.50;0.50;;;;;;;3.90;73.54;99195.31;5066744;28;20293;-66
2023/02/18 04:12:33;;;;;;;0.50;0.50;;;;;;;3.82;72.88;99189.34;5067808;28;20094;-66
2023/02/18 04:14:58;;;;;;;0.50;0.50;;;;;;;3.87;71.94;99207.31;5067802;28;20024;-67
2023/02/18 04:17:24;;;;;;;0.50;0.50;;;;;;;3.90;73.10;99202.19;5067711;28;20045;-67
2023/02/18 04:19:49;;;;;;;0.50;0.50;;;;;;;3.88;72.83;99203.91;5067844;28;20103;-67
2023/02/18 04:22:15;;;;;;;0.50;0.50;;;;;;;3.91;73.79;99209.91;5067623;28;20053;-67
2023/02/18 04:24:40;;;;;;;5.97;5.22;;;;;;;3.93;74.62;99208.16;5066399;28;20522;-67
2023/02/18 04:27:05;;;;;;;0.50;0.50;;;;;;;3.92;75.32;99231.28;5067310;28;20031;-68
2023/02/18 04:29:31;;;;;;;0.50;0.50;;;;;;;3.92;74.32;99216.72;5068846;28;20044;-67
2023/02/18 04:31:56;;;;;;;0.50;0.50;;;;;;;3.88;74.43;99225.31;5067311;28;20021;-67
2023/02/18 04:34:22;;;;;;;0.50;0.50;;;;;;;3.89;74.88;99228.72;5066302;28;20025;-69
2023/02/18 04:36:47;;;;;;;0.50;0.50;;;;;;;3.94;75.59;99234.72;5067518;28;20028;-66
2023/02/18 04:39:13;;;;;;;0.50;0.50;;;;;;;3.91;75.33;99221.88;5067304;28;20032;-66
2023/02/18 04:41:38;;;;;;;0.50;0.50;;;;;;;3.88;76.26;99224.44;5067250;28;20105;-67
2023/02/18 04:44:04;;;;;;;0.50;0.50;;;;;;;3.85;75.40;99222.72;5065926;28;20024;-67
2023/02/18 04:46:29;;;;;;;0.60;0.60;;;;;;;3.88;75.71;99219.31;5067249;28;20464;-67
2023/02/18 04:48:55;;;;;;;1.73;1.63;;;;;;;3.82;75.46;99232.97;5067270;28;20024;-68
2023/02/18 04:51:20;;;;;;;0.50;0.50;;;;;;;3.84;75.48;99221.00;5066685;28;20025;-66
2023/02/18 04:53:46;;;;;;;0.50;0.50;;;;;;;3.81;75.43;99231.28;5066972;28;20028;-67
2023/02/18 04:56:11;;;;;;;0.60;0.60;;;;;;;3.80;75.46;99222.72;5065990;28;20558;-66
2023/02/18 04:58:37;;;;;;;0.60;0.60;;;;;;;3.82;75.00;99231.28;5066898;28;20041;-67
2023/02/18 05:01:03;;;;;;;0.50;0.50;;;;;;;3.85;75.33;99230.41;5066559;28;20108;-65
2023/02/18 05:03:29;;;;;;;9.18;5.68;;;;;;;3.85;76.07;99238.13;5066783;28;20029;-67
2023/02/18 05:05:55;;;;;;;0.50;0.50;;;;;;;3.83;75.63;99232.16;5066727;28;20047;-66
2023/02/18 05:08:20;;;;;;;0.50;0.50;;;;;;;3.79;76.45;99228.72;5066625;28;20028;-66
2023/02/18 05:10:46;;;;;;;0.60;0.60;;;;;;;3.79;76.23;99227.84;5066647;28;20028;-65
2023/02/18 05:13:11;;;;;;;0.50;0.50;;;;;;;3.84;76.46;99234.72;5066668;28;20167;-64
2023/02/18 05:15:36;;;;;;;0.50;0.50;;;;;;;3.84;77.19;99239.84;5066568;28;20055;-66
2023/02/18 05:18:02;;;;;;;3.22;2.95;;;;;;;3.83;77.77;99229.56;5066574;28;20055;-66
2023/02/18 05:20:28;;;;;;;0.50;0.50;;;;;;;3.84;78.06;99232.16;5066786;28;20025;-67
2023/02/18 05:22:53;;;;;;;0.60;0.60;;;;;;;3.83;78.09;99238.13;5066391;28;20032;-67
2023/02/18 05:25:19;;;;;;;0.50;0.50;;;;;;;3.82;77.77;99236.41;5066625;28;20075;-67
2023/02/18 05:27:44;;;;;;;0.50;0.50;;;;;;;3.81;78.10;99221.88;5066656;28;20025;-68
2023/02/18 05:30:10;;;;;;;0.50;0.50;;;;;;;3.82;78.08;99240.69;5066534;28;20029;-67
2023/02/18 05:32:35;;;;;;;2.47;2.38;;;;;;;3.81;77.66;99244.97;5066253;28;20100;-67
2023/02/18 05:35:01;;;;;;;0.50;0.50;;;;;;;3.79;77.19;99232.97;5064984;28;20028;-67
2023/02/18 05:37:26;;;;;;;0.50;0.50;;;;;;;3.81;77.35;99238.97;5066337;28;20028;-67
2023/02/18 05:39:51;;;;;;;0.98;0.93;;;;;;;3.78;75.84;99244.97;5066322;28;20051;-68
2023/02/18 05:42:17;;;;;;;0.50;0.50;;;;;;;3.74;76.50;99260.38;5064781;28;20035;-67
2023/02/18 05:44:42;;;;;;;0.70;0.70;;;;;;;3.73;75.84;99256.94;5066173;28;20059;-68
2023/02/18 05:47:10;;;;;;;0.50;0.50;;;;;;;3.72;76.27;99250.94;5066018;28;20025;-68
2023/02/18 05:49:36;;;;;;;0.50;0.50;;;;;;;3.71;76.85;99254.38;5066322;28;20218;-68
2023/02/18 05:52:03;;;;;;;0.50;0.50;;;;;;;3.69;75.96;99258.66;5066067;28;20047;-68
2023/02/18 05:54:28;;;;;;;0.50;0.50;;;;;;;3.67;76.80;99255.25;5065832;28;20044;-68
2023/02/18 05:56:54;;;;;;;0.40;0.40;;;;;;;3.59;76.00;99250.06;5065515;28;20053;-68
2023/02/18 05:59:20;;;;;;;0.55;0.55;;;;;;;3.68;76.19;99256.09;5065847;28;20029;-68
2023/02/18 06:01:46;;;;;;;0.50;0.50;;;;;;;3.66;77.16;99244.97;5065242;28;20056;-67
2023/02/18 06:04:12;;;;;;;0.98;0.98;;;;;;;3.65;77.02;99236.41;5065382;28;20028;-68
2023/02/18 06:06:37;;;;;;;0.50;0.50;;;;;;;3.72;77.48;99245.81;5065774;28;20504;-67
2023/02/18 06:09:04;;;;;;;0.50;0.50;;;;;;;3.74;77.40;99250.13;5065524;28;20028;-67
2023/02/18 06:11:30;;;;;;;0.50;0.50;;;;;;;3.66;76.97;99240.69;5065601;28;20083;-67
2023/02/18 06:13:55;;;;;;;1.15;1.15;;;;;;;3.61;76.21;99233.84;5065816;28;20033;-67
2023/02/18 06:16:21;;;;;;;0.50;0.50;;;;;;;3.63;75.66;99239.81;5065423;28;20025;-69
2023/02/18 06:18:46;;;;;;;0.60;0.60;;;;;;;3.66;75.95;99245.81;5065463;28;20017;-67
2023/02/18 06:21:11;;;;;;;0.50;0.50;;;;;;;3.66;75.95;99243.25;5065359;28;20025;-68
2023/02/18 06:23:37;;;;;;;0.50;0.50;;;;;;;3.62;76.63;99246.69;5065262;28;20029;-67
2023/02/18 06:26:02;;;;;;;0.50;0.50;;;;;;;3.60;76.70;99248.38;5064222;28;20025;-67
2023/02/18 06:28:28;;;;;;;0.50;0.50;;;;;;;3.66;76.54;99245.81;5065302;28;20084;-68
2023/02/18 06:30:53;;;;;;;7.72;6.13;;;;;;;3.69;77.45;99258.66;5065526;28;20080;-67
2023/02/18 06:33:19;;;;;;;0.50;0.50;;;;;;;3.70;77.90;99260.38;5063844;28;20452;-67
2023/02/18 06:35:57;;;;;;;0.70;0.70;;;;;;;3.75;78.53;99262.09;5064125;28;20021;-68
2023/02/18 06:38:22;;;;;;;33.30;7.13;;;;;;;3.70;78.29;99262.09;5065261;28;20032;-68
2023/02/18 06:40:48;;;;;;;0.50;0.50;;;;;;;3.75;78.20;99254.38;5065196;28;20029;-67
2023/02/18 06:43:13;;;;;;;0.50;0.50;;;;;;;3.75;78.79;99272.34;5064867;28;20025;-69
2023/02/18 06:45:39;;;;;;;0.50;0.50;;;;;;;3.74;78.35;99273.22;5065081;28;20139;-69
2023/02/18 06:48:04;;;;;;;0.50;0.50;;;;;;;3.81;78.80;99269.78;5065202;28;20021;-67
2023/02/18 06:50:30;;;;;;;0.50;0.50;;;;;;;3.81;78.93;99270.66;5065525;28;20033;-66
2023/02/18 06:52:55;;;;;;;0.60;0.60;;;;;;;3.89;79.36;99269.78;5065408;28;20023;-67
2023/02/18 06:55:21;;;;;;;0.50;0.50;;;;;;;3.91;79.94;99263.81;5065213;28;20092;-66
2023/02/18 06:57:46;;;;;;;1.45;1.45;;;;;;;3.96;79.88;99267.22;5065307;28;20113;-66
2023/02/18 07:00:12;;;;;;;0.50;0.50;;;;;;;4.01;80.45;99269.78;5065775;28;20106;-67
2023/02/18 07:02:37;;;;;;;0.50;0.50;;;;;;;4.07;80.52;99267.22;5065211;28;20036;-67
2023/02/18 07:05:03;;;;;;;0.50;0.50;;;;;;;4.11;80.55;99267.22;5064816;28;20024;-68
2023/02/18 07:07:28;;;;;;;0.50;0.50;;;;;;;4.12;79.31;99274.94;5064989;28;20013;-67
2023/02/18 07:09:54;;;;;;;0.60;0.60;;;;;;;4.13;78.99;99275.78;5064804;28;20112;-67
2023/02/18 07:12:19;;;;;;;0.50;0.50;;;;;;;4.16;77.44;99271.53;5064850;28;20040;-67
2023/02/18 07:14:45;;;;;;;0.50;0.50;;;;;;;4.26;78.02;99284.34;5067560;28;20366;-67
2023/02/18 07:17:10;;;;;;;0.50;0.50;;;;;;;4.30;78.49;99283.47;5068576;28;20025;-68
2023/02/18 07:19:36;;;;;;;0.60;0.60;;;;;;;4.38;78.76;99288.63;5068910;28;20025;-69
2023/02/18 07:22:01;;;;;;;0.60;0.60;;;;;;;4.45;78.81;99282.63;5068824;28;20067;-67
2023/02/18 07:24:27;;;;;;;0.50;0.50;;;;;;;4.48;79.00;99282.63;5068840;28;20021;-67
2023/02/18 07:26:52;;;;;;;0.50;0.50;;;;;;;4.46;79.45;99279.19;5068709;28;20043;-67
2023/02/18 07:29:17;;;;;;;0.50;0.50;;;;;;;4.45;78.53;99288.63;5068704;28;20017;-68
2023/02/18 07:31:43;;;;;;;0.50;0.50;;;;;;;4.52;79.22;99283.47;5068459;28;20021;-68
2023/02/18 07:34:08;;;;;;;0.55;0.55;;;;;;;4.50;78.75;99288.63;5068654;28;20025;-68
2023/02/18 07:36:33;;;;;;;0.50;0.50;;;;;;;4.52;78.60;99283.47;5068479;28;20036;-67
2023/02/18 07:38:59;;;;;;;0.60;0.60;;;;;;;4.45;77.38;99283.50;5068410;28;20021;-68
2023/02/18 07:41:24;;;;;;;0.50;0.50;;;;;;;4.49;77.79;99281.75;5068296;28;20032;-68
2023/02/18 07:43:50;;;;;;;0.50;0.50;;;;;;;4.49;77.38;99278.34;5068363;28;20037;-67
2023/02/18 07:46:15;;;;;;;0.57;0.57;;;;;;;4.50;77.71;99274.91;5066879;28;20040;-66
2023/02/18 07:48:41;;;;;;;0.52;0.52;;;;;;;4.58;77.09;99280.91;5067357;28;20017;-68
2023/02/18 07:51:08;;;;;;;0.50;0.50;;;;;;;4.59;75.64;99292.88;5068097;28;20092;-68
2023/02/18 07:53:35;;;;;;;0.50;0.50;;;;;;;4.66;76.59;99293.72;5068082;28;20048;-67
2023/02/18 07:56:01;;;;;;;0.52;0.52;;;;;;;4.69;75.55;99299.72;5068121;28;20017;-68
2023/02/18 07:58:29;;;;;;;0.50;0.50;;;;;;;4.71;74.76;99303.13;5067784;28;20037;-68
2023/02/18 08:00:56;;;;;;;0.50;0.50;;;;;;;4.74;74.20;99298.84;5067907;28;20025;-68
2023/02/18 08:03:24;;;;;;;0.40;0.40;;;;;;;4.77;75.08;99297.13;5067498;28;20035;-69
2023/02/18 08:05:51;;;;;;;0.50;0.50;;;;;;;4.82;75.35;99297.94;5068112;28;20346;-67
2023/02/18 08:08:21;;;;;;;0.50;0.50;;;;;;;4.86;75.05;99303.94;5067798;28;20024;-69
2023/02/18 08:10:48;;;;;;;0.60;0.60;;;;;;;4.95;75.51;99309.06;5067984;28;20040;-68
2023/02/18 08:13:14;;;;;;;0.50;0.50;;;;;;;5.14;76.87;99297.88;5067560;28;20475;-69
2023/02/18 08:15:40;;;;;;;0.40;0.40;;;;;;;5.63;77.31;99311.34;5067838;28;20029;-68
2023/02/18 08:18:07;;;;;;;0.50;0.50;;;;;;;6.14;76.38;99305.88;5067737;28;20035;-68
2023/02/18 08:20:36;;;;;;;0.50;0.50;;;;;;;6.26;75.19;99306.66;5066452;28;20032;-68
2023/02/18 08:23:03;;;;;;;0.50;0.50;;;;;;;6.20;75.79;99299.81;5067729;28;20028;-68
2023/02/18 08:25:28;;;;;;;0.40;0.40;;;;;;;6.07;75.19;99306.81;5066705;28;20039;-68
2023/02/18 08:27:54;;;;;;;0.50;0.50;;;;;;;5.97;75.00;99310.28;5067588;28;20021;-68
2023/02/18 08:30:19;;;;;;;0.43;0.43;;;;;;;5.91;74.92;99309.44;5067516;28;20020;-67
2023/02/18 08:32:44;;;;;;;0.50;0.50;;;;;;;5.92;76.52;99324.06;5067188;28;20029;-69
2023/02/18 08:35:11;;;;;;;0.50;0.50;;;;;;;5.99;77.31;99321.44;5066073;28;20059;-68
2023/02/18 08:37:36;;;;;;;0.50;0.50;;;;;;;5.99;76.72;99330.00;5067313;28;20104;-68
2023/02/18 08:40:02;;;;;;;0.50;0.50;;;;;;;6.01;76.14;99328.28;5067409;28;20435;-70
2023/02/18 08:42:28;;;;;;;0.40;0.40;;;;;;;5.98;76.74;99330.88;5067226;28;20021;-69
2023/02/18 08:44:53;;;;;;;0.47;0.47;;;;;;;5.93;76.58;99328.34;5067134;28;20103;-71
2023/02/18 08:47:18;;;;;;;0.45;0.45;;;;;;;5.99;76.79;99318.88;5067150;28;20024;-69
2023/02/18 08:49:44;;;;;;;0.43;0.43;;;;;;;6.03;77.67;99338.56;5067514;28;20449;-71
2023/02/18 08:52:09;;;;;;;0.50;0.50;;;;;;;6.22;77.61;99330.72;5067181;28;20100;-71
2023/02/18 08:54:35;;;;;;;0.45;0.45;;;;;;;6.58;76.10;99328.72;5065747;28;20035;-69
2023/02/18 08:57:00;;;;;;;0.50;0.50;;;;;;;6.87;76.18;99331.88;5049048;28;20107;-69
2023/02/18 08:59:26;;;;;;;10.95;4.68;;;;;;;6.97;74.13;99340.34;5067055;28;20025;-69
2023/02/18 09:01:51;;;;;;;0.40;0.40;;;;;;;7.23;74.69;99340.09;5067090;28;20488;-69
2023/02/18 09:04:17;;;;;;;0.40;0.40;;;;;;;7.85;75.36;99337.56;5067087;28;20029;-69
2023/02/18 09:06:42;;;;;;;0.50;0.50;;;;;;;8.63;72.42;99336.34;5067014;28;20029;-69
2023/02/18 09:09:08;;;;;;;0.60;0.60;;;;;;;8.99;71.17;99336.59;5066898;28;20048;-68
2023/02/18 09:11:35;;;;;;;0.50;0.50;;;;;;;9.27;71.47;99337.75;5066838;28;20025;-69
2023/02/18 09:14:01;;;;;;;0.40;0.40;;;;;;;9.55;70.13;99342.38;5067388;28;20081;-67
2023/02/18 09:16:28;;;;;;;0.50;0.50;;;;;;;10.12;69.45;99339.38;5067917;28;20025;-68
2023/02/18 09:18:54;;;;;;;0.43;0.43;;;;;;;10.24;66.62;99327.88;5067802;28;20024;-69
2023/02/18 09:21:26;;;;;;;0.40;0.40;;;;;;;10.03;67.01;99338.69;5066853;28;20037;-68
2023/02/18 09:23:52;;;;;;;0.95;0.90;;;;;;;10.29;65.41;99339.81;5065852;28;20028;-70
2023/02/18 09:26:23;;;;;;;0.40;0.40;;;;;;;10.79;67.21;99348.13;5066752;28;20029;-68
2023/02/18 09:28:50;;;;;;;0.50;0.50;;;;;;;11.19;67.86;99347.94;5065503;28;20044;-68
2023/02/18 09:31:22;;;;;;;0.40;0.40;;;;;;;11.12;63.29;99342.06;5066660;28;20040;-67
2023/02/18 09:33:59;;;;;;;0.40;0.40;;;;;;;10.62;64.56;99343.38;5066568;28;20025;-69
2023/02/18 09:36:26;;;;;;;0.40;0.40;;;;;;;10.04;65.18;99355.97;5066476;28;20033;-69
2023/02/18 09:38:52;;;;;;;0.40;0.40;;;;;;;9.79;66.11;99353.09;5065170;28;20059;-69
2023/02/18 09:41:46;;;;;;;0.55;0.55;;;;;;;9.33;67.18;99357.50;5066338;28;20036;-71
2023/02/18 09:44:17;;;;;;;0.40;0.40;;;;;;;8.90;65.10;99353.13;5065909;28;20115;-71
2023/02/18 09:46:53;;;;;;;0.60;0.60;;;;;;;8.68;65.51;99358.69;5066639;28;20035;-70
2023/02/18 09:49:24;;;;;;;0.52;0.52;;;;;;;8.66;67.24;99349.22;5065995;28;20021;-68
2023/02/18 09:51:50;;;;;;;0.40;0.40;;;;;;;8.77;68.73;99362.84;5064856;28;20020;-70
2023/02/18 09:54:17;;;;;;;0.40;0.40;;;;;;;8.86;69.53;99364.44;5065144;28;20025;-69
2023/02/18 09:56:45;;;;;;;14.10;2.17;;;;;;;9.14;69.27;99366.47;5065823;28;20045;-71
2023/02/18 09:59:16;;;;;;;0.40;0.40;;;;;;;9.53;68.38;99367.47;5065817;28;20045;-70
2023/02/18 10:01:42;;;;;;;0.43;0.43;;;;;;;9.73;67.99;99367.03;5065764;28;20076;-69
2023/02/18 10:04:51;;;;;;;0.35;0.35;;;;;;;9.82;68.98;99371.16;5065651;28;20025;-70
2023/02/18 10:07:27;;;;;;;0.40;0.40;;;;;;;9.41;66.72;99361.63;5065226;28;20052;-70
2023/02/18 10:09:54;;;;;;;0.40;0.40;;;;;;;9.38;69.26;99363.44;5064508;28;20116;-69
2023/02/18 10:12:23;;;;;;;0.40;0.40;;;;;;;9.50;68.31;99358.03;5065723;28;20035;-66
2023/02/18 10:14:51;;;;;;;0.40;0.40;;;;;;;9.49;69.63;99360.63;5065555;28;20021;-67
2023/02/18 10:17:19;;;;;;;0.40;0.40;;;;;;;9.22;68.01;99363.75;5065373;28;20179;-70
2023/02/18 10:19:47;;;;;;;0.40;0.40;;;;;;;9.56;69.00;99359.63;5064095;28;20111;-66
2023/02/18 10:22:14;;;;;;;0.40;0.40;;;;;;;10.14;70.18;99363.53;5065489;28;20035;-66
2023/02/18 10:24:48;;;;;;;0.40;0.40;;;;;;;10.45;69.59;99377.53;5064760;28;20021;-66
2023/02/18 10:27:26;;;;;;;0.40;0.40;;;;;;;10.60;71.26;99361.59;5064217;28;20126;-65
2023/02/18 10:29:55;;;;;;;1.63;1.52;;;;;;;10.53;68.73;99360.03;5065217;28;20027;-67
2023/02/18 10:32:26;;;;;;;0.40;0.40;;;;;;;10.43;68.18;99358.53;5065268;28;20040;-67
2023/02/18 10:35:11;;;;;;;0.40;0.40;;;;;;;10.44;69.79;99360.22;5065400;28;20024;-65
2023/02/18 10:37:51;;;;;;;0.40;0.40;;;;;;;10.77;68.66;99355.97;5065305;28;20032;-66
2023/02/18 10:40:41;;;;;;;0.50;0.50;;;;;;;10.62;67.62;99351.19;5065374;28;20072;-67
2023/02/18 10:43:07;;;;;;;0.43;0.43;;;;;;;10.53;66.33;99352.25;5065277;28;20033;-66
2023/02/18 10:45:42;;;;;;;0.40;0.40;;;;;;;10.23;65.95;99354.69;5065547;28;20051;-65
2023/02/18 10:48:26;;;;;;;1.88;1.77;;;;;;;9.78;64.76;99351.38;5065243;28;20032;-66
2023/02/18 10:50:52;;;;;;;0.40;0.40;;;;;;;9.21;64.60;99345.66;5065513;28;20021;-60
2023/02/18 10:53:39;;;;;;;0.40;0.40;;;;;;;8.92;66.45;99356.53;5065893;28;20136;-65
2023/02/18 10:56:07;;;;;;;0.40;0.40;;;;;;;8.80;64.01;99352.44;5065370;28;20021;-64
2023/02/18 10:58:34;;;;;;;0.40;0.40;;;;;;;8.72;66.17;99358.63;5064745;28;20045;-65
2023/02/18 11:01:11;;;;;;;0.45;0.45;;;;;;;8.68;67.67;99358.69;5063776;28;20515;-66
2023/02/18 11:03:41;;;;;;;1.58;1.55;;;;;;;9.06;67.68;99360.59;5065064;28;20021;-65
2023/02/18 11:06:37;;;;;;;0.50;0.50;;;;;;;9.39;65.87;99365.16;5065226;28;20024;-65
2023/02/18 11:09:04;;;;;;;0.40;0.40;;;;;;;10.14;66.58;99364.38;5061287;28;20063;-66
2023/02/18 11:11:35;;;;;;;0.50;0.50;;;;;;;10.68;65.60;99355.34;5064948;28;20076;-66
2023/02/18 11:14:03;;;;;;;0.50;0.50;;;;;;;11.20;65.34;99362.66;5063426;28;20025;-65
2023/02/18 11:16:45;;;;;;;0.40;0.40;;;;;;;11.39;64.43;99355.16;5064988;28;20036;-66
2023/02/18 11:19:37;;;;;;;0.70;0.70;;;;;;;11.33;62.07;99364.00;5064824;28;20021;-67
2023/02/18 11:22:18;;;;;;;0.57;0.57;;;;;;;11.38;62.86;99369.91;5064777;28;20059;-65
2023/02/18 11:24:47;;;;;;;0.50;0.50;;;;;;;11.75;63.23;99355.00;5065288;28;20033;-66
2023/02/18 11:27:30;;;;;;;0.43;0.43;;;;;;;12.62;58.44;99359.19;5065261;28;20096;-66
2023/02/18 11:30:19;;;;;;;1.58;1.48;;;;;;;13.13;57.42;99361.78;5065012;28;20029;-65
2023/02/18 11:32:49;;;;;;;0.40;0.40;;;;;;;13.65;57.53;99357.34;5064747;28;20025;-66
2023/02/18 11:35:26;;;;;;;0.40;0.40;;;;;;;14.03;58.03;99355.91;5065132;28;20025;-66
2023/02/18 11:37:52;;;;;;;0.30;0.30;;;;;;;14.48;55.14;99361.94;5064617;28;20029;-66
2023/02/18 11:40:28;;;;;;;0.30;0.30;;;;;;;14.90;53.99;99341.94;5064684;28;20029;-67
2023/02/18 11:43:14;;;;;;;0.40;0.40;;;;;;;15.06;53.02;99349.94;5064682;28;20025;-66
2023/02/18 11:45:41;;;;;;;0.30;0.30;;;;;;;15.06;53.88;99349.94;5063375;28;20440;-66
2023/02/18 11:48:17;;;;;;;0.30;0.30;;;;;;;14.73;55.93;99360.88;5063156;28;20055;-66
2023/02/18 11:50:43;;;;;;;0.40;0.40;;;;;;;15.09;55.73;99355.03;5063446;28;20021;-66
2023/02/18 11:53:31;;;;;;;0.40;0.40;;;;;;;15.45;55.12;99356.06;5064393;28;20029;-64